Time;durP1;ratioP1;P1;durP2;ratioP2;P2;SDS_P1;SDS_P2;PMS_P1;PMS_P2;Temp;Humidity;BMP_temperature;BMP_pressure;BME280_temperature;BME280_humidity;BME280_pressure;Samples;Min_cycle;Max_cycle;Signal;HPM_P1;HPM_P2
2022/11/01 00:01:26;;;;;;;12.27;10.90;;;;;;;10.43;100.00;99690.47;6043145;23;20214;-83
2022/11/01 00:03:52;;;;;;;12.23;10.43;;;;;;;10.46;100.00;99690.03;6068249;23;20209;-85
2022/11/01 00:06:19;;;;;;;12.03;10.70;;;;;;;10.49;100.00;99687.75;6067395;23;20687;-83
2022/11/01 00:08:46;;;;;;;13.67;10.07;;;;;;;10.47;100.00;99686.31;6068687;23;20189;-85
2022/11/01 00:11:14;;;;;;;11.23;10.07;;;;;;;10.48;100.00;99686.09;6067963;23;20670;-84
2022/11/01 00:13:44;;;;;;;11.47;10.27;;;;;;;10.52;100.00;99689.16;6068131;23;20205;-84
2022/11/01 00:16:10;;;;;;;13.13;10.50;;;;;;;10.51;100.00;99674.13;6043022;23;20224;-84
2022/11/01 00:18:37;;;;;;;13.47;9.93;;;;;;;10.56;100.00;99674.28;6070623;23;20697;-83
2022/11/01 00:21:04;;;;;;;11.17;9.40;;;;;;;10.47;100.00;99684.47;6081252;23;20233;-83
2022/11/01 00:23:30;;;;;;;13.33;9.80;;;;;;;10.51;100.00;99680.31;6076519;23;20212;-82
2022/11/01 00:25:59;;;;;;;13.27;10.10;;;;;;;10.48;100.00;99675.41;6021905;23;20209;-82
2022/11/01 00:28:28;;;;;;;14.13;10.37;;;;;;;10.46;100.00;99677.47;6068741;23;20645;-82
2022/11/01 00:30:56;;;;;;;12.50;10.23;;;;;;;10.43;100.00;99679.75;6069571;23;20205;-82
2022/11/01 00:33:23;;;;;;;12.10;10.03;;;;;;;10.39;100.00;99676.69;6067706;23;20216;-84
2022/11/01 00:35:50;;;;;;;11.13;10.03;;;;;;;10.42;100.00;99675.44;6042540;23;20216;-84
2022/11/01 00:38:17;;;;;;;11.23;10.13;;;;;;;10.43;100.00;99674.41;6067336;23;20678;-83
2022/11/01 00:40:44;;;;;;;11.50;10.23;;;;;;;10.45;100.00;99677.69;6044104;23;20208;-83
2022/11/01 00:43:11;;;;;;;12.00;10.53;;;;;;;10.39;100.00;99676.69;6069264;23;20189;-84
2022/11/01 00:45:38;;;;;;;12.73;10.73;;;;;;;10.42;100.00;99675.44;6044291;23;20213;-84
2022/11/01 00:48:05;;;;;;;13.90;10.53;;;;;;;10.40;100.00;99675.66;6069424;23;20204;-83
2022/11/01 00:50:31;;;;;;;11.90;10.00;;;;;;;10.43;100.00;99667.19;6068741;23;20212;-84
2022/11/01 00:52:58;;;;;;;12.17;10.37;;;;;;;10.41;100.00;99673.78;6067770;23;20205;-84
2022/11/01 00:55:24;;;;;;;11.20;10.00;;;;;;;10.39;100.00;99667.84;6067424;23;20219;-82
2022/11/01 00:57:51;;;;;;;11.17;9.97;;;;;;;10.38;100.00;99655.47;6042100;23;20275;-84
2022/11/01 01:00:18;;;;;;;12.10;10.20;;;;;;;10.39;100.00;99655.28;6066796;23;20581;-84
2022/11/01 01:02:44;;;;;;;13.03;10.37;;;;;;;10.40;100.00;99656.91;6042139;23;20727;-85
2022/11/01 01:05:11;;;;;;;12.40;10.57;;;;;;;10.38;100.00;99660.84;6067429;23;20215;-84
2022/11/01 01:07:38;;;;;;;11.50;9.77;;;;;;;10.40;100.00;99653.41;6042964;23;20206;-83
2022/11/01 01:10:05;;;;;;;12.67;10.47;;;;;;;10.43;100.00;99659.16;6067416;23;20208;-82
2022/11/01 01:12:32;;;;;;;11.23;10.00;;;;;;;10.44;100.00;99649.25;6020117;23;20216;-83
2022/11/01 01:14:58;;;;;;;11.03;9.83;;;;;;;10.40;100.00;99656.91;6070198;23;20556;-84
2022/11/01 01:17:25;;;;;;;10.90;9.67;;;;;;;10.32;100.00;99643.78;6042923;23;20220;-84
2022/11/01 01:19:56;;;;;;;11.47;9.73;;;;;;;10.33;100.00;99645.44;6066895;23;20268;-83
2022/11/01 01:22:23;;;;;;;12.03;9.17;;;;;;;10.32;100.00;99648.31;6066388;23;20665;-83
2022/11/01 01:24:50;;;;;;;11.10;9.33;;;;;;;10.34;100.00;99644.38;6066440;23;20236;-84
2022/11/01 01:27:16;;;;;;;12.93;10.50;;;;;;;10.33;100.00;99648.09;6066553;23;20209;-86
2022/11/01 01:29:46;;;;;;;12.93;10.10;;;;;;;10.35;100.00;99655.94;6066317;23;20209;-83
2022/11/01 01:32:14;;;;;;;12.50;10.30;;;;;;;10.31;100.00;99654.72;6065795;23;20272;-85
2022/11/01 01:34:41;;;;;;;13.03;10.17;;;;;;;10.35;100.00;99651.41;6067313;23;20190;-84
2022/11/01 01:37:08;;;;;;;12.73;9.90;;;;;;;10.45;100.00;99650.91;6066251;23;20276;-86
2022/11/01 01:39:37;;;;;;;13.40;10.10;;;;;;;10.40;100.00;99650.75;6042002;23;20240;-85
2022/11/01 01:42:21;;;;;;;11.97;10.07;;;;;;;10.37;100.00;99649.31;6065817;23;20216;-83
2022/11/01 01:44:50;;;;;;;10.43;8.90;;;;;;;10.40;100.00;99645.38;6065788;23;20650;-85
2022/11/01 01:47:29;;;;;;;10.70;9.27;;;;;;;10.41;100.00;99641.66;6066456;23;20213;-86
2022/11/01 01:50:00;;;;;;;11.20;9.73;;;;;;;10.41;100.00;99629.06;6041669;23;20655;-86
2022/11/01 01:52:30;;;;;;;12.13;9.97;;;;;;;10.38;100.00;99632.19;6041533;23;20216;-86
2022/11/01 01:54:59;;;;;;;11.33;9.73;;;;;;;10.43;100.00;99628.88;6041567;23;20662;-86
2022/11/01 01:57:25;;;;;;;12.00;8.97;;;;;;;10.43;100.00;99635.06;6018029;23;20216;-85
2022/11/01 01:59:52;;;;;;;10.77;8.60;;;;;;;10.42;100.00;99622.69;6041446;23;20232;-85
2022/11/01 02:02:20;;;;;;;10.20;8.93;;;;;;;10.44;100.00;99630.50;6042008;23;20189;-86
2022/11/01 02:04:51;;;;;;;10.07;8.97;;;;;;;10.39;100.00;99627.66;6068982;23;20650;-89
2022/11/01 02:07:17;;;;;;;10.10;9.10;;;;;;;10.44;100.00;99627.84;6019980;23;20216;-87
2022/11/01 02:09:44;;;;;;;11.40;8.83;;;;;;;10.51;100.00;99626.72;5997016;23;20208;-87
2022/11/01 02:12:12;;;;;;;9.93;8.90;;;;;;;10.49;100.00;99625.31;6027896;23;20269;-86
2022/11/01 02:14:41;;;;;;;10.27;9.23;;;;;;;10.49;100.00;99628.00;6002455;23;20233;-85
2022/11/01 03:54:42;;;;;;;12.03;9.77;;;;;;;10.43;100.00;99626.19;6058885;23;20205;-87
2022/11/01 03:57:09;;;;;;;10.00;8.97;;;;;;;10.46;100.00;99639.13;6067140;23;20216;-88
2022/11/01 03:59:36;;;;;;;11.03;9.47;;;;;;;10.48;100.00;99629.84;6020000;23;20210;-88
2022/11/01 04:02:03;;;;;;;10.40;9.30;;;;;;;10.50;100.00;99638.47;6066389;23;20204;-89
2022/11/01 04:04:30;;;;;;;11.67;9.57;;;;;;;10.50;100.00;99634.97;6043044;23;20669;-87
2022/11/01 04:06:56;;;;;;;11.53;9.40;;;;;;;10.53;100.00;99632.69;6043121;23;20217;-89
2022/11/01 04:09:23;;;;;;;10.33;9.10;;;;;;;10.51;100.00;99640.13;6042933;23;20217;-88
2022/11/01 04:11:49;;;;;;;10.73;9.60;;;;;;;10.50;100.00;99629.63;6042798;23;20213;-89
2022/11/01 04:22:34;;;;;;;10.70;9.43;;;;;;;10.50;100.00;99627.75;6046465;23;20201;-90
2022/11/01 04:25:00;;;;;;;10.67;9.57;;;;;;;10.51;100.00;99628.59;6019636;23;20209;-89
2022/11/01 04:27:27;;;;;;;11.70;9.73;;;;;;;10.53;100.00;99629.19;6019507;23;20670;-91
2022/11/01 04:29:54;;;;;;;10.63;9.13;;;;;;;10.52;100.00;99628.38;6043363;23;20220;-90
2022/11/01 04:32:20;;;;;;;10.50;9.37;;;;;;;10.63;100.00;99629.53;6042484;23;20218;-90
2022/11/01 04:34:47;;;;;;;11.23;10.03;;;;;;;10.59;100.00;99623.75;6043547;23;20689;-90
2022/11/01 04:37:14;;;;;;;11.23;9.53;;;;;;;10.60;100.00;99617.38;5995629;23;20205;-89
2022/11/01 04:39:40;;;;;;;12.40;9.77;;;;;;;10.67;100.00;99616.50;6019460;23;20213;-89
2022/11/01 04:42:07;;;;;;;11.77;9.93;;;;;;;10.61;100.00;99618.19;5994029;23;20219;-90
2022/11/01 04:44:34;;;;;;;10.93;9.83;;;;;;;10.60;100.00;99609.34;6042774;23;20215;-89
2022/11/01 04:47:01;;;;;;;11.20;9.97;;;;;;;10.59;100.00;99620.28;5995445;23;20217;-89
2022/11/01 04:49:28;;;;;;;10.97;9.77;;;;;;;10.59;100.00;99622.97;5995877;23;20217;-89
2022/11/01 04:51:54;;;;;;;11.10;8.80;;;;;;;10.59;100.00;99623.75;6019175;23;20238;-90
2022/11/01 04:54:21;;;;;;;10.23;9.07;;;;;;;10.60;100.00;99624.59;6041547;23;20253;-89
2022/11/01 04:56:48;;;;;;;12.40;9.57;;;;;;;10.64;100.00;99620.44;6042840;23;20205;-90
2022/11/01 04:59:14;;;;;;;11.27;9.67;;;;;;;10.60;100.00;99613.88;6019013;23;20205;-88
2022/11/01 05:01:41;;;;;;;10.67;9.43;;;;;;;10.67;100.00;99611.97;5996171;23;20209;-89
2022/11/01 05:04:08;;;;;;;11.00;9.67;;;;;;;10.68;100.00;99610.94;6019501;23;20267;-90
2022/11/01 05:06:35;;;;;;;10.50;9.47;;;;;;;10.66;100.00;99607.66;5996864;23;20215;-89
2022/11/01 05:09:01;;;;;;;12.50;10.03;;;;;;;10.64;100.00;99616.97;6018806;23;20212;-88
2022/11/01 05:11:28;;;;;;;12.03;10.20;;;;;;;10.59;100.00;99609.59;5995711;23;20213;-88
2022/11/01 05:13:55;;;;;;;13.07;10.27;;;;;;;10.62;100.00;99610.97;6018923;23;20209;-88
2022/11/01 05:16:21;;;;;;;11.37;9.83;;;;;;;10.59;100.00;99620.28;5995117;23;20211;-88
2022/11/01 05:18:48;;;;;;;11.23;9.90;;;;;;;10.57;100.00;99625.03;6019071;23;20221;-89
2022/11/01 05:21:16;;;;;;;11.40;10.20;;;;;;;10.56;100.00;99615.34;5995591;23;20220;-89
2022/11/01 05:23:43;;;;;;;11.83;10.63;;;;;;;10.56;100.00;99626.91;6018468;23;20209;-89
2022/11/01 05:26:10;;;;;;;12.87;9.90;;;;;;;10.63;100.00;99620.66;6018217;23;20220;-91
2022/11/01 05:28:36;;;;;;;10.77;9.67;;;;;;;10.58;100.00;99622.16;6019073;23;20225;-89
2022/11/01 05:31:03;;;;;;;13.17;10.17;;;;;;;10.53;100.00;99602.41;6042681;23;20209;-89
2022/11/01 05:33:30;;;;;;;12.13;10.30;;;;;;;10.53;100.00;99613.94;6019036;23;20213;-89
2022/11/01 05:35:59;;;;;;;12.37;10.53;;;;;;;10.55;100.00;99632.47;5995502;23;20209;-89
2022/11/01 05:38:26;;;;;;;13.40;10.77;;;;;;;10.52;100.00;99624.88;6018473;23;20288;-90
2022/11/01 05:40:53;;;;;;;11.63;9.70;;;;;;;10.54;100.00;99631.63;5995726;23;20212;-90
2022/11/01 05:43:19;;;;;;;12.80;10.47;;;;;;;10.64;100.00;99631.16;6042867;23;20213;-89
2022/11/01 05:45:46;;;;;;;13.20;10.43;;;;;;;10.68;100.00;99647.63;6042766;23;20683;-88
2022/11/01 05:48:13;;;;;;;12.83;9.87;;;;;;;10.60;100.00;99635.31;6018445;23;20721;-88
2022/11/01 05:50:42;;;;;;;12.60;10.40;;;;;;;10.60;100.00;99638.81;6018910;23;20208;-88
2022/11/01 05:53:09;;;;;;;15.40;10.50;;;;;;;10.56;100.00;99637.63;5995296;23;20267;-89
2022/11/01 05:55:36;;;;;;;11.20;10.00;;;;;;;10.57;100.00;99641.13;6013885;23;20241;-89
2022/11/01 05:58:04;;;;;;;12.00;10.27;;;;;;;10.61;100.00;99642.31;6013184;23;20265;-91
2022/11/01 06:00:32;;;;;;;14.70;10.57;;;;;;;10.62;100.00;99643.97;6037544;23;20291;-89
2022/11/01 06:02:59;;;;;;;13.57;10.27;;;;;;;10.67;100.00;99645.97;5990597;23;20248;-88
2022/11/01 06:05:27;;;;;;;11.57;10.27;;;;;;;10.72;100.00;99651.50;6014421;23;20214;-89
2022/11/01 06:07:53;;;;;;;12.63;10.53;;;;;;;10.67;100.00;99654.03;6013734;23;20224;-89
2022/11/01 06:10:20;;;;;;;13.33;9.90;;;;;;;10.63;100.00;99648.28;5990272;23;20212;-89
2022/11/01 06:12:47;;;;;;;11.60;9.03;;;;;;;10.68;100.00;99644.94;6037407;23;20216;-89
2022/11/01 06:15:14;;;;;;;12.60;9.90;;;;;;;10.63;100.00;99647.47;6037486;23;20213;-89
2022/11/01 06:17:41;;;;;;;11.97;10.53;;;;;;;10.76;100.00;99658.06;6013690;23;20215;-88
2022/11/01 06:20:08;;;;;;;12.53;10.40;;;;;;;10.75;100.00;99661.78;6013506;23;20659;-89
2022/11/01 06:22:35;;;;;;;14.17;10.67;;;;;;;10.74;100.00;99660.13;6014086;23;20299;-89
2022/11/01 06:25:02;;;;;;;12.03;10.67;;;;;;;10.77;100.00;99663.22;5990212;23;20216;-89
2022/11/01 06:27:29;;;;;;;13.27;11.20;;;;;;;10.75;100.00;99673.31;6037158;23;20207;-90
2022/11/01 06:29:56;;;;;;;15.47;11.73;;;;;;;10.78;100.00;99667.50;6013797;23;20210;-89
2022/11/01 06:32:23;;;;;;;15.60;11.13;;;;;;;10.80;100.00;99672.66;6036668;23;20683;-87
2022/11/01 06:34:49;;;;;;;13.30;10.90;;;;;;;10.84;100.00;99676.53;6013602;23;20214;-87
2022/11/01 06:37:16;;;;;;;13.47;10.63;;;;;;;10.86;100.00;99679.81;6013543;23;20210;-89
2022/11/01 06:39:42;;;;;;;13.77;11.70;;;;;;;10.94;100.00;99679.53;5991748;23;20684;-88
2022/11/01 06:42:09;;;;;;;13.27;10.97;;;;;;;10.93;100.00;99685.94;5991994;23;20214;-88
2022/11/01 06:44:36;;;;;;;14.30;10.70;;;;;;;10.94;100.00;99679.53;5990982;23;20293;-88
2022/11/01 06:47:03;;;;;;;12.87;11.47;;;;;;;10.90;100.00;99678.34;5990549;23;20210;-88
2022/11/01 06:49:30;;;;;;;13.03;10.50;;;;;;;11.03;100.00;99692.44;5990606;23;20224;-89
2022/11/01 06:51:57;;;;;;;12.67;10.13;;;;;;;11.03;100.00;99686.25;5990975;23;20248;-86
2022/11/01 06:54:24;;;;;;;13.50;10.40;;;;;;;11.09;100.00;99671.16;6001203;23;20206;-87
2022/11/01 06:56:51;;;;;;;11.70;10.00;;;;;;;11.08;100.00;99682.91;5992351;23;20246;-87
2022/11/01 06:59:17;;;;;;;12.90;10.57;;;;;;;11.12;100.00;99684.09;6014180;23;20221;-89
2022/11/01 07:01:44;;;;;;;11.90;9.83;;;;;;;11.07;100.00;99683.94;6014608;23;20606;-89
2022/11/01 07:04:11;;;;;;;12.77;10.20;;;;;;;11.11;100.00;99685.13;5991594;23;20217;-88
2022/11/01 07:06:38;;;;;;;13.77;10.90;;;;;;;11.17;100.00;99682.41;6015061;23;20662;-87
2022/11/01 07:09:05;;;;;;;13.40;11.13;;;;;;;11.16;100.00;99687.97;6040728;23;20213;-88
2022/11/01 07:11:32;;;;;;;13.90;10.53;;;;;;;11.21;100.00;99688.97;6040775;23;20216;-88
2022/11/01 07:13:59;;;;;;;12.53;10.23;;;;;;;11.25;100.00;99695.50;6015618;23;20213;-88
2022/11/01 07:16:25;;;;;;;13.23;10.83;;;;;;;11.23;100.00;99689.56;6040142;23;20210;-90
2022/11/01 07:18:52;;;;;;;13.00;10.93;;;;;;;11.19;100.00;99696.41;6015293;23;20212;-89
2022/11/01 07:21:19;;;;;;;14.13;11.43;;;;;;;11.23;100.00;99702.97;6039211;23;20533;-88
2022/11/01 07:23:45;;;;;;;13.57;11.13;;;;;;;11.23;100.00;99688.75;6015434;23;20211;-89
2022/11/01 07:26:12;;;;;;;14.60;10.70;;;;;;;11.25;100.00;99694.69;6040081;23;20214;-91
2022/11/01 07:28:39;;;;;;;13.33;11.27;;;;;;;11.31;100.00;99696.50;6038987;23;20209;-88
2022/11/01 07:31:05;;;;;;;14.23;10.73;;;;;;;11.28;100.00;99697.78;6038884;23;20207;-89
2022/11/01 07:33:32;;;;;;;13.37;11.50;;;;;;;11.24;100.00;99695.75;6015188;23;20210;-88
2022/11/01 07:36:00;;;;;;;12.40;10.37;;;;;;;11.24;100.00;99699.25;6015108;23;20209;-88
2022/11/01 07:38:27;;;;;;;13.13;10.77;;;;;;;11.31;100.00;99694.63;6015075;23;20206;-89
2022/11/01 07:40:53;;;;;;;13.17;11.77;;;;;;;11.29;100.00;99693.22;5992065;23;20230;-89
2022/11/01 07:43:20;;;;;;;14.70;11.37;;;;;;;11.24;100.00;99701.13;6038751;23;20213;-89
2022/11/01 07:45:48;;;;;;;12.77;11.30;;;;;;;11.20;100.00;99698.03;5992126;23;20207;-90
2022/11/01 07:48:17;;;;;;;13.43;11.47;;;;;;;11.25;100.00;99708.09;5991950;23;20224;-90
2022/11/01 07:50:44;;;;;;;14.27;10.90;;;;;;;11.25;100.00;99694.69;6015586;23;20543;-91
2022/11/01 07:53:16;;;;;;;13.90;11.10;;;;;;;11.32;100.00;99698.97;6015771;23;20244;-91
2022/11/01 07:55:44;;;;;;;10.90;9.63;;;;;;;11.34;100.00;99696.84;6015722;23;20289;-89
2022/11/01 07:58:11;;;;;;;12.40;10.07;;;;;;;11.34;100.00;99698.72;6015610;23;20296;-90
2022/11/01 08:00:38;;;;;;;13.30;10.27;;;;;;;11.30;100.00;99690.31;5993090;23;20210;-89
2022/11/01 08:03:11;;;;;;;13.53;10.50;;;;;;;11.34;100.00;99701.41;5992493;23;20216;-91
2022/11/01 08:05:38;;;;;;;12.83;10.53;;;;;;;11.36;100.00;99704.69;5992863;23;20210;-90
2022/11/01 08:08:06;;;;;;;14.63;10.83;;;;;;;11.48;100.00;99714.44;5991189;23;20222;-91
2022/11/01 08:10:33;;;;;;;13.70;10.93;;;;;;;11.52;100.00;99719.38;5991755;23;20211;-89
2022/11/01 08:13:24;;;;;;;13.10;10.10;;;;;;;11.56;100.00;99710.66;5992189;23;20220;-92
2022/11/01 08:15:52;;;;;;;12.20;10.13;;;;;;;11.59;100.00;99715.56;6041032;23;20209;-92
2022/11/01 08:18:21;;;;;;;13.90;11.07;;;;;;;11.65;100.00;99705.81;5991493;23;20210;-92
2022/11/01 08:20:48;;;;;;;14.13;10.77;;;;;;;11.67;100.00;99709.91;6015345;23;20255;-93
2022/11/01 08:23:15;;;;;;;14.10;10.20;;;;;;;11.68;100.00;99706.19;5992386;23;20219;-91
2022/11/01 08:25:42;;;;;;;12.20;10.27;;;;;;;11.63;100.00;99703.34;5992366;23;20207;-91
2022/11/01 08:28:13;;;;;;;11.23;9.93;;;;;;;11.67;100.00;99712.59;6015171;23;20238;-91
2022/11/01 08:30:42;;;;;;;13.43;11.00;;;;;;;11.68;100.00;99718.78;5992496;23;20273;-92
2022/11/01 08:33:09;;;;;;;14.13;11.87;;;;;;;11.69;100.00;99723.94;6016307;23;20232;-90
2022/11/01 08:35:36;;;;;;;13.63;11.20;;;;;;;11.78;100.00;99727.97;5991725;23;20214;-93
2022/11/01 08:38:03;;;;;;;14.73;10.90;;;;;;;11.79;100.00;99724.25;5991443;23;20210;-92
2022/11/01 08:40:31;;;;;;;11.67;10.47;;;;;;;11.82;100.00;99723.78;5992030;23;20210;-91
2022/11/01 08:42:58;;;;;;;12.33;10.87;;;;;;;11.92;100.00;99728.63;5992253;23;20281;-93
2022/11/01 08:45:26;;;;;;;12.10;10.20;;;;;;;11.93;100.00;99719.53;5992712;23;20213;-92
2022/11/01 08:48:00;;;;;;;12.27;10.90;;;;;;;11.96;100.00;99721.75;5991690;23;20293;-92
2022/11/01 08:50:27;;;;;;;13.70;11.50;;;;;;;12.05;100.00;99727.63;5990203;23;20686;-92
2022/11/01 08:52:53;;;;;;;12.60;10.97;;;;;;;12.04;100.00;99734.06;6015400;23;20213;-93
2022/11/01 08:55:21;;;;;;;12.60;10.73;;;;;;;12.04;100.00;99728.72;6014940;23;20265;-92
2022/11/01 08:57:49;;;;;;;11.13;9.70;;;;;;;12.05;100.00;99731.16;5991954;23;20534;-92
2022/11/01 09:00:16;;;;;;;12.33;10.80;;;;;;;12.09;100.00;99726.13;6014645;23;20269;-92
2022/11/01 09:02:43;;;;;;;12.57;9.97;;;;;;;12.05;100.00;99733.00;5991488;23;20218;-92
2022/11/01 09:05:09;;;;;;;12.77;10.70;;;;;;;11.95;100.00;99738.91;5991947;23;20702;-92
2022/11/01 09:07:37;;;;;;;12.13;10.70;;;;;;;12.01;100.00;99748.75;5991060;23;20210;-90
2022/11/01 09:10:05;;;;;;;12.27;10.97;;;;;;;12.11;100.00;99743.69;5991111;23;20936;-92
2022/11/01 09:12:31;;;;;;;12.43;11.23;;;;;;;12.12;100.00;99739.13;6014948;23;20215;-92
2022/11/01 09:14:58;;;;;;;11.23;9.83;;;;;;;12.15;100.00;99739.50;6014758;23;20607;-92
2022/11/01 09:17:25;;;;;;;11.80;10.10;;;;;;;12.22;100.00;99750.97;6014931;23;20213;-92
2022/11/01 09:19:52;;;;;;;11.17;9.93;;;;;;;12.28;100.00;99752.72;5990907;23;20223;-93
2022/11/01 09:22:18;;;;;;;10.53;9.43;;;;;;;12.34;100.00;99749.16;5978971;23;20226;-93
2022/11/01 09:24:45;;;;;;;10.73;9.50;;;;;;;12.43;100.00;99755.00;6013551;23;20214;-92
2022/11/01 09:27:12;;;;;;;9.77;8.63;;;;;;;12.62;100.00;99758.47;5989966;23;20220;-92
2022/11/01 09:29:38;;;;;;;11.83;9.00;;;;;;;12.76;100.00;99760.72;5990940;23;20581;-92
2022/11/01 09:32:08;;;;;;;9.80;8.83;;;;;;;12.89;100.00;99761.56;5990619;23;20234;-93
2022/11/01 09:34:34;;;;;;;10.60;8.97;;;;;;;12.98;100.00;99768.22;6015090;23;20214;-92
2022/11/01 09:37:01;;;;;;;9.77;8.77;;;;;;;12.73;100.00;99765.75;5991322;23;20214;-92
2022/11/01 09:39:28;;;;;;;11.57;9.50;;;;;;;12.45;100.00;99765.53;6014578;23;20236;-91
2022/11/01 09:41:58;;;;;;;10.13;9.10;;;;;;;12.63;100.00;99776.22;5991336;23;20234;-92
2022/11/01 09:44:27;;;;;;;10.23;9.07;;;;;;;12.74;100.00;99767.38;5990527;23;20202;-92
2022/11/01 09:46:57;;;;;;;10.30;9.30;;;;;;;12.95;100.00;99776.78;6014531;23;20215;-92
2022/11/01 09:49:31;;;;;;;10.40;9.30;;;;;;;12.54;100.00;99774.91;6016461;23;20217;-91
2022/11/01 09:51:58;;;;;;;9.53;8.63;;;;;;;12.57;100.00;99779.81;6015415;23;20210;-90
2022/11/01 09:54:26;;;;;;;10.53;9.20;;;;;;;12.58;100.00;99776.09;5990774;23;20221;-91
2022/11/01 09:57:05;;;;;;;11.27;9.50;;;;;;;12.69;100.00;99769.94;6014247;23;20212;-92
2022/11/01 09:59:54;;;;;;;12.30;9.70;;;;;;;12.80;100.00;99769.13;6014564;23;20238;-92
2022/11/01 10:02:39;;;;;;;10.10;9.00;;;;;;;12.89;100.00;99769.63;5990883;23;20217;-92
2022/11/01 10:05:20;;;;;;;9.80;8.80;;;;;;;13.04;100.00;99757.38;6014396;23;20216;-92
2022/11/01 10:07:53;;;;;;;10.20;9.10;;;;;;;13.11;100.00;99763.47;5990861;23;20234;-91
2022/11/01 10:10:40;;;;;;;11.00;8.53;;;;;;;13.01;100.00;99759.72;6013478;23;20665;-91
2022/11/01 10:13:09;;;;;;;10.27;9.10;;;;;;;12.75;100.00;99763.63;6037726;23;20222;-92
2022/11/01 10:15:55;;;;;;;10.23;9.17;;;;;;;12.94;100.00;99764.38;6013956;23;20211;-91
2022/11/01 10:18:26;;;;;;;10.43;9.23;;;;;;;12.94;100.00;99770.56;5990152;23;20202;-90
2022/11/01 10:20:59;;;;;;;11.37;9.37;;;;;;;12.69;100.00;99778.81;6014206;23;20493;-92
2022/11/01 10:23:50;;;;;;;11.40;9.90;;;;;;;12.75;100.00;99771.69;5991233;23;20230;-91
2022/11/01 10:26:24;;;;;;;10.17;9.17;;;;;;;12.83;100.00;99771.34;5990779;23;20237;-93
2022/11/01 10:28:58;;;;;;;12.53;10.33;;;;;;;12.76;100.00;99760.72;5991076;23;20267;-92
2022/11/01 10:31:26;;;;;;;10.93;9.73;;;;;;;12.71;100.00;99759.78;5991435;23;20222;-90
2022/11/01 10:33:58;;;;;;;10.13;9.13;;;;;;;12.62;100.00;99761.16;5992005;23;20219;-91
2022/11/01 10:36:32;;;;;;;13.10;9.77;;;;;;;12.66;100.00;99770.38;6015350;23;20203;-93
2022/11/01 10:39:14;;;;;;;11.73;9.53;;;;;;;12.81;100.00;99762.72;5991407;23;20704;-91
2022/11/01 10:42:07;;;;;;;11.07;9.87;;;;;;;12.64;100.00;99764.44;6019496;23;20229;-91
2022/11/01 10:44:38;;;;;;;11.17;9.43;;;;;;;12.40;100.00;99760.03;5992724;23;20254;-90
2022/11/01 10:56:18;;;;;;;10.27;9.27;;;;;;;12.36;100.00;99773.09;6066556;23;20241;-88
2022/11/01 10:58:59;;;;;;;10.40;9.20;;;;;;;12.55;100.00;99768.50;6044926;23;20816;-90
2022/11/01 11:01:29;;;;;;;11.93;9.37;;;;;;;12.74;100.00;99778.13;5997317;23;20292;-91
2022/11/01 11:04:00;;;;;;;11.20;10.10;;;;;;;12.86;100.00;99778.97;6020519;23;20216;-90
2022/11/01 11:06:26;;;;;;;11.63;9.70;;;;;;;12.93;100.00;99779.69;6020793;23;20270;-92
2022/11/01 11:08:54;;;;;;;11.40;9.23;;;;;;;12.88;100.00;99766.09;6044161;23;20210;-91
2022/11/01 11:11:48;;;;;;;11.27;9.53;;;;;;;12.80;100.00;99769.13;5997410;23;20262;-91
2022/11/01 11:14:17;;;;;;;10.97;9.80;;;;;;;13.13;100.00;99772.16;6014821;23;20652;-91
2022/11/01 11:16:48;;;;;;;11.17;9.33;;;;;;;13.35;100.00;99763.50;5969057;23;20234;-92
2022/11/01 11:19:29;;;;;;;11.50;9.47;;;;;;;13.39;100.00;99764.69;6015176;23;20292;-91
2022/11/01 11:21:57;;;;;;;9.93;9.00;;;;;;;13.41;100.00;99776.84;5991703;23;20216;-91
2022/11/01 11:24:29;;;;;;;10.30;9.27;;;;;;;13.34;100.00;99762.69;5991724;23;20212;-90
2022/11/01 11:26:56;;;;;;;11.17;9.67;;;;;;;13.00;100.00;99775.03;5991759;23;20219;-89
2022/11/01 11:29:47;;;;;;;10.47;9.37;;;;;;;13.19;100.00;99773.09;5991378;23;20233;-90
2022/11/01 11:32:21;;;;;;;11.53;9.40;;;;;;;13.40;100.00;99774.38;5991847;23;20223;-91
2022/11/01 11:35:00;;;;;;;11.27;9.43;;;;;;;13.66;100.00;99763.13;5991790;23;20287;-90
2022/11/01 11:37:34;;;;;;;44.00;25.17;;;;;;;13.92;100.00;99764.47;5992267;23;20246;-91
2022/11/01 11:40:15;;;;;;;118.53;54.13;;;;;;;14.30;100.00;99762.03;5991664;23;20222;-90
2022/11/01 11:42:43;;;;;;;165.57;131.87;;;;;;;14.27;100.00;99770.59;5992008;23;20271;-92
2022/11/01 11:45:28;;;;;;;29.87;26.20;;;;;;;14.39;100.00;99767.88;5991792;23;20214;-91
2022/11/01 11:48:13;;;;;;;10.90;9.90;;;;;;;14.41;100.00;99774.69;5991418;23;20224;-92
2022/11/01 11:50:40;;;;;;;11.87;9.93;;;;;;;13.75;100.00;99774.38;6039914;23;20212;-90
2022/11/01 11:53:20;;;;;;;13.17;11.87;;;;;;;13.85;100.00;99780.78;5991644;23;20212;-90
2022/11/01 11:56:00;;;;;;;12.13;10.93;;;;;;;13.86;100.00;99762.72;5991535;23;20216;-90
2022/11/01 11:58:36;;;;;;;10.57;9.10;;;;;;;13.86;100.00;99768.94;6015607;23;20206;-91
2022/11/01 12:01:05;;;;;;;11.43;9.00;;;;;;;13.73;100.00;99769.19;5968943;23;20215;-90
2022/11/01 12:03:50;;;;;;;22.50;18.67;;;;;;;13.77;100.00;99767.66;6015368;23;20215;-90
2022/11/01 12:06:19;;;;;;;9.77;8.87;;;;;;;13.79;100.00;99764.75;6014775;23;20240;-90
2022/11/01 12:08:49;;;;;;;9.97;8.27;;;;;;;13.76;100.00;99765.25;6014325;23;20231;-90
2022/11/01 12:11:16;;;;;;;9.53;8.63;;;;;;;13.76;100.00;99763.38;5990999;23;20685;-89
2022/11/01 12:13:45;;;;;;;9.33;8.43;;;;;;;13.92;100.00;99761.78;5991177;23;20223;-91
2022/11/01 12:16:11;;;;;;;9.73;8.83;;;;;;;14.06;100.00;99765.84;5990613;23;20212;-91
2022/11/01 12:18:49;;;;;;;10.50;9.50;;;;;;;14.00;100.00;99767.63;6014463;23;20214;-90
2022/11/01 12:21:32;;;;;;;11.10;10.00;;;;;;;14.16;100.00;99774.16;5991754;23;20226;-90
2022/11/01 12:24:04;;;;;;;11.47;10.43;;;;;;;14.19;100.00;99772.84;5991187;23;20251;-90
2022/11/01 12:26:34;;;;;;;11.87;10.67;;;;;;;13.98;100.00;99764.38;5991504;23;20220;-89
2022/11/01 12:29:30;;;;;;;11.93;10.73;;;;;;;14.21;100.00;99776.13;6014764;23;20209;-90
2022/11/01 12:32:05;;;;;;;11.33;10.23;;;;;;;14.35;100.00;99767.53;6014139;23;20211;-89
2022/11/01 12:34:34;;;;;;;11.90;10.73;;;;;;;14.21;100.00;99762.66;5990373;23;20300;-90
2022/11/01 12:37:13;;;;;;;20.83;18.93;;;;;;;14.35;100.00;99769.38;5992264;23;20668;-91
2022/11/01 12:39:54;;;;;;;18.33;16.73;;;;;;;14.76;100.00;99770.97;5968699;23;20722;-92
2022/11/01 12:42:27;;;;;;;11.00;9.90;;;;;;;14.88;100.00;99772.53;5990584;23;20217;-91
2022/11/01 12:45:00;;;;;;;10.50;9.60;;;;;;;14.90;100.00;99769.59;5992329;23;20221;-90
2022/11/01 12:47:31;;;;;;;9.70;8.80;;;;;;;14.82;100.00;99773.53;6014883;23;20269;-89
2022/11/01 12:50:17;;;;;;;10.00;9.00;;;;;;;15.20;100.00;99769.28;5968978;23;20214;-91
2022/11/01 12:52:57;;;;;;;9.83;8.83;;;;;;;15.15;100.00;99761.94;6015107;23;20209;-94
2022/11/01 12:55:31;;;;;;;9.70;8.30;;;;;;;15.77;100.00;99756.38;6015279;23;20348;-90
2022/11/01 12:57:58;;;;;;;10.73;8.63;;;;;;;15.89;100.00;99751.66;5991735;23;20544;-90
2022/11/01 13:00:48;;;;;;;9.37;8.37;;;;;;;15.66;100.00;99747.31;5990626;23;20210;-89
2022/11/01 13:03:25;;;;;;;9.50;8.10;;;;;;;15.99;100.00;99740.16;6013875;23;20289;-88
2022/11/01 13:06:13;;;;;;;8.97;8.10;;;;;;;14.82;100.00;99751.94;6013531;23;20221;-90
2022/11/01 13:09:05;;;;;;;9.03;8.13;;;;;;;14.80;100.00;99754.06;5986631;23;20209;-89
2022/11/01 13:11:57;;;;;;;8.37;7.57;;;;;;;15.01;100.00;99752.53;6036700;23;20215;-88
2022/11/01 13:14:29;;;;;;;8.30;7.50;;;;;;;15.10;100.00;99750.25;6011208;23;20237;-89
2022/11/01 13:17:22;;;;;;;9.03;8.13;;;;;;;15.30;100.00;99745.16;6037073;23;20244;-89
2022/11/01 13:20:00;;;;;;;8.70;7.80;;;;;;;15.54;100.00;99745.81;5967160;23;20214;-89
2022/11/01 13:22:27;;;;;;;10.03;8.17;;;;;;;15.79;100.00;99748.84;5989488;23;20257;-89